Time;durP1;ratioP1;P1;durP2;ratioP2;P2;SDS_P1;SDS_P2;PMS_P1;PMS_P2;Temp;Humidity;BMP_temperature;BMP_pressure;BME280_temperature;BME280_humidity;BME280_pressure;Samples;Min_cycle;Max_cycle;Signal;HPM_P1;HPM_P2
2021/03/23 00:04:52;;;;;;;24.00;10.45;;;;;;;4.89;83.58;101220.69;20901118;28;20052;-71
2021/03/23 00:14:53;;;;;;;29.15;12.35;;;;;;;4.86;82.48;101225.94;20901119;28;20102;-71
2021/03/23 00:24:54;;;;;;;26.73;13.07;;;;;;;4.84;82.49;101232.88;20900067;28;20049;-71
2021/03/23 00:34:55;;;;;;;20.88;9.32;;;;;;;4.79;83.78;101228.66;20899224;28;20132;-71
2021/03/23 00:44:56;;;;;;;28.38;11.32;;;;;;;4.78;83.42;101229.53;20894097;28;20049;-72
2021/03/23 00:54:57;;;;;;;23.80;10.10;;;;;;;4.67;83.24;101232.34;20893686;28;20046;-71
2021/03/23 01:04:58;;;;;;;23.95;10.90;;;;;;;4.65;83.73;101231.50;20894968;28;20036;-71
2021/03/23 01:15:00;;;;;;;25.35;9.25;;;;;;;4.58;84.13;101222.09;20890435;28;20047;-72
2021/03/23 01:25:02;;;;;;;17.13;9.18;;;;;;;4.54;83.60;101216.13;20927246;28;20045;-72
2021/03/23 01:35:04;;;;;;;20.75;8.13;;;;;;;4.53;84.07;101218.72;20900505;28;20056;-72
2021/03/23 01:45:20;;;;;;;17.85;9.50;;;;;;;4.56;84.13;101224.75;20912152;28;20171;-72
2021/03/23 01:55:21;;;;;;;28.17;10.05;;;;;;;4.48;84.26;101212.75;20942189;28;20037;-71
2021/03/23 02:05:28;;;;;;;22.67;9.63;;;;;;;4.51;83.93;101220.50;20920960;28;20044;-71
2021/03/23 02:15:29;;;;;;;21.38;9.63;;;;;;;4.49;84.56;101207.56;20913960;28;20045;-71
2021/03/23 02:25:30;;;;;;;19.15;9.00;;;;;;;4.47;84.41;101209.31;20951827;28;20102;-71
2021/03/23 02:35:32;;;;;;;21.75;9.48;;;;;;;4.45;84.81;101210.22;20919563;28;20045;-71
2021/03/23 02:45:33;;;;;;;24.27;8.95;;;;;;;4.36;85.66;101206.06;20937443;28;20506;-71
2021/03/23 02:55:34;;;;;;;19.95;9.93;;;;;;;4.35;86.63;101203.47;20948092;28;20060;-71
2021/03/23 03:05:35;;;;;;;23.52;8.88;;;;;;;4.35;86.08;101203.47;20903636;28;20045;-71
2021/03/23 03:15:35;;;;;;;21.08;9.52;;;;;;;4.32;86.31;101200.06;20903550;28;20448;-71
2021/03/23 03:25:36;;;;;;;21.52;9.77;;;;;;;4.33;85.63;101198.31;20902817;28;20037;-71
2021/03/23 03:35:39;;;;;;;24.05;10.55;;;;;;;4.29;87.17;101209.63;20895176;28;20578;-71
2021/03/23 03:45:41;;;;;;;26.42;10.63;;;;;;;4.30;86.40;101201.81;20894181;28;20037;-71
2021/03/23 03:55:44;;;;;;;20.33;10.07;;;;;;;4.26;87.01;101204.50;20909859;28;20103;-71
2021/03/23 04:05:46;;;;;;;23.67;10.43;;;;;;;4.23;88.39;101201.94;20897651;28;20095;-71
2021/03/23 04:15:49;;;;;;;23.10;9.98;;;;;;;4.24;88.47;101206.25;20897604;28;20679;-71
2021/03/23 04:25:50;;;;;;;18.85;9.35;;;;;;;4.27;88.38;101212.22;20901125;28;20056;-71
2021/03/23 04:35:56;;;;;;;20.58;9.98;;;;;;;4.25;89.79;101200.19;20892308;28;20463;-71
2021/03/23 04:45:58;;;;;;;19.75;10.63;;;;;;;4.22;90.06;101215.75;20895328;28;20041;-71
2021/03/23 04:55:59;;;;;;;20.40;10.52;;;;;;;4.22;89.20;101214.03;20893987;28;20053;-70
2021/03/23 05:06:07;;;;;;;21.60;9.90;;;;;;;4.21;90.29;101233.06;20896265;28;20045;-71
2021/03/23 05:16:08;;;;;;;20.88;11.05;;;;;;;4.18;90.54;101242.59;20892779;28;20071;-71
2021/03/23 05:26:09;;;;;;;22.58;10.82;;;;;;;4.20;90.25;101233.94;20898231;28;20558;-71
2021/03/23 05:36:11;;;;;;;19.52;10.38;;;;;;;4.17;90.23;101233.97;20895227;28;20385;-70
2021/03/23 05:46:16;;;;;;;22.75;10.65;;;;;;;4.24;90.98;101248.56;20895370;28;20049;-71
2021/03/23 05:56:22;;;;;;;31.30;14.35;;;;;;;4.29;90.28;101256.25;20888710;28;20091;-71
2021/03/23 06:06:57;;;;;;;23.50;11.27;;;;;;;4.42;89.16;101267.31;20891907;28;20609;-71
2021/03/23 06:17:16;;;;;;;24.95;12.50;;;;;;;4.48;89.39;101278.41;20888811;28;20052;-71
2021/03/23 06:27:33;;;;;;;25.25;12.27;;;;;;;4.54;87.93;101272.28;20901654;28;20506;-71
2021/03/23 06:37:39;;;;;;;26.15;12.85;;;;;;;4.79;86.74;101278.78;20908164;28;20045;-71
2021/03/23 06:47:41;;;;;;;29.90;13.68;;;;;;;4.97;86.85;101288.88;20885177;28;20099;-71
2021/03/23 06:57:42;;;;;;;25.40;13.63;;;;;;;5.15;86.88;101296.34;20907160;28;20045;-71
2021/03/23 07:07:59;;;;;;;23.48;12.43;;;;;;;5.33;86.33;101312.47;20902198;28;20128;-71
2021/03/23 07:18:06;;;;;;;26.55;13.07;;;;;;;5.40;84.49;101319.25;20905247;28;20516;-70
2021/03/23 07:28:25;;;;;;;25.65;12.82;;;;;;;5.62;84.57;101324.91;20880578;28;20400;-70
2021/03/23 07:38:40;;;;;;;28.55;13.88;;;;;;;5.72;82.88;101329.91;20890788;28;20048;-70
2021/03/23 07:49:06;;;;;;;27.23;13.50;;;;;;;6.03;81.27;101337.09;20892510;28;20041;-70
2021/03/23 07:59:39;;;;;;;21.63;12.90;;;;;;;6.49;80.73;101344.78;20876543;28;20048;-70
2021/03/23 08:10:01;;;;;;;28.33;13.55;;;;;;;6.50;79.30;101349.97;20877978;28;20041;-70
2021/03/23 08:20:23;;;;;;;23.02;13.63;;;;;;;6.81;76.79;101345.72;20887771;28;20045;-70
2021/03/23 08:30:27;;;;;;;26.40;13.75;;;;;;;6.99;76.64;101354.00;20893515;28;20099;-68
2021/03/23 08:40:47;;;;;;;25.53;12.33;;;;;;;7.52;73.45;101350.88;20892428;28;20646;-69
2021/03/23 08:50:48;;;;;;;27.45;13.75;;;;;;;7.78;71.31;101358.00;20889488;28;20095;-68
2021/03/23 09:00:57;;;;;;;24.35;12.77;;;;;;;7.87;69.36;101365.59;20899076;28;20053;-69
2021/03/23 09:11:06;;;;;;;23.00;11.68;;;;;;;8.00;67.50;101373.91;20882816;28;20044;-69
2021/03/23 09:21:10;;;;;;;22.70;11.07;;;;;;;8.38;66.14;101375.47;20909270;28;20049;-68
2021/03/23 09:31:15;;;;;;;21.85;10.93;;;;;;;7.96;61.58;101362.72;20890815;28;20570;-69
2021/03/23 09:41:55;;;;;;;20.05;11.25;;;;;;;8.62;61.57;101377.34;20899339;28;20068;-68
2021/03/23 09:52:06;;;;;;;19.05;10.30;;;;;;;9.08;58.42;101366.28;20881539;28;20122;-69
2021/03/23 10:02:35;;;;;;;24.15;11.93;;;;;;;8.82;59.96;101363.66;20889326;28;20041;-69
2021/03/23 10:12:37;;;;;;;23.77;12.07;;;;;;;9.01;58.59;101349.09;20896230;28;20085;-69
2021/03/23 10:22:39;;;;;;;23.70;10.90;;;;;;;9.37;58.92;101340.03;20898224;28;20041;-67
2021/03/23 10:32:52;;;;;;;24.77;11.55;;;;;;;10.06;57.46;101338.44;20899393;28;20037;-68
2021/03/23 10:42:54;;;;;;;21.58;11.45;;;;;;;10.13;58.24;101326.84;20881002;28;20786;-67
2021/03/23 10:53:28;;;;;;;25.25;10.98;;;;;;;10.14;56.84;101325.09;20896715;28;20057;-69
2021/03/23 11:03:34;;;;;;;36.70;12.95;;;;;;;9.94;56.90;101331.06;20888778;28;20049;-68
2021/03/23 11:13:35;;;;;;;30.40;12.10;;;;;;;10.08;56.36;101312.22;20876282;28;20437;-68
2021/03/23 11:23:44;;;;;;;26.63;11.98;;;;;;;9.76;56.36;101321.25;20903669;28;20076;-69
2021/03/23 11:33:46;;;;;;;20.63;10.93;;;;;;;10.12;58.34;101300.72;20896674;28;20041;-68
2021/03/23 11:43:50;;;;;;;17.98;10.80;;;;;;;10.25;54.70;101302.03;20876995;28;20145;-69
2021/03/23 11:53:52;;;;;;;16.87;9.03;;;;;;;10.03;56.01;101296.72;20880894;28;20555;-69
2021/03/23 12:03:53;;;;;;;19.15;11.18;;;;;;;10.34;53.43;101303.41;20887326;28;20091;-68
2021/03/23 12:14:13;;;;;;;18.00;10.75;;;;;;;9.89;56.49;101301.59;20887841;28;20493;-68
2021/03/23 12:24:15;;;;;;;22.45;10.75;;;;;;;10.26;53.25;101295.84;20905492;28;20049;-68
2021/03/23 12:34:17;;;;;;;16.17;9.40;;;;;;;10.16;52.37;101289.25;20901552;28;20520;-68
2021/03/23 12:44:20;;;;;;;17.17;10.30;;;;;;;9.52;54.41;101272.47;20894925;28;20045;-68
2021/03/23 12:54:35;;;;;;;16.10;9.60;;;;;;;9.78;53.03;101273.25;20909864;28;20116;-69
2021/03/23 13:04:36;;;;;;;20.47;10.67;;;;;;;9.88;55.18;101255.44;20872358;28;20132;-68
2021/03/23 13:14:49;;;;;;;18.75;9.70;;;;;;;10.33;54.58;101249.38;20893176;28;20053;-69
2021/03/23 13:24:52;;;;;;;19.13;9.02;;;;;;;10.12;55.25;101237.94;20902571;28;20056;-70
2021/03/23 13:34:54;;;;;;;18.75;8.70;;;;;;;10.21;54.10;101228.00;20896945;28;20091;-68
2021/03/23 13:45:05;;;;;;;17.42;9.10;;;;;;;10.19;52.41;101222.00;20899223;28;20049;-68
2021/03/23 13:55:14;;;;;;;13.88;7.18;;;;;;;10.05;54.96;101218.19;20903518;28;20044;-69
2021/03/23 14:05:15;;;;;;;16.67;7.78;;;;;;;10.53;54.83;101220.63;20893956;28;20099;-69
2021/03/23 14:15:23;;;;;;;14.40;7.22;;;;;;;10.40;52.75;101224.69;20896375;28;20411;-70
2021/03/23 14:25:34;;;;;;;13.65;7.72;;;;;;;10.45;52.39;101207.03;20893872;28;20133;-69
2021/03/23 14:35:35;;;;;;;13.68;7.28;;;;;;;10.17;53.57;101202.03;20877364;28;20076;-69
2021/03/23 14:45:36;;;;;;;18.92;7.85;;;;;;;10.03;54.18;101205.16;20909055;28;20045;-68
2021/03/23 14:55:39;;;;;;;15.23;7.40;;;;;;;9.65;56.79;101200.56;20904155;28;20045;-69
2021/03/23 15:05:41;;;;;;;15.00;7.63;;;;;;;9.68;57.21;101203.06;20897183;28;20050;-71
2021/03/23 15:15:42;;;;;;;20.38;7.65;;;;;;;9.25;57.45;101191.56;20907234;28;20041;-70
2021/03/23 15:25:43;;;;;;;15.65;7.15;;;;;;;9.21;57.28;101195.19;20899225;28;20060;-69
2021/03/23 15:35:43;;;;;;;14.40;7.68;;;;;;;9.20;56.69;101195.25;20906341;28;20037;-69
2021/03/23 15:45:45;;;;;;;19.90;8.32;;;;;;;9.37;54.69;101198.09;20883973;28;20045;-69
2021/03/23 15:55:46;;;;;;;12.48;7.30;;;;;;;9.34;54.51;101193.88;20906127;28;20095;-69
2021/03/23 16:05:48;;;;;;;18.33;8.23;;;;;;;9.42;54.86;101196.19;20897745;28;20048;-68
2021/03/23 16:15:50;;;;;;;12.50;7.07;;;;;;;9.42;55.67;101197.03;20900806;28;20103;-69
2021/03/23 16:25:51;;;;;;;16.10;7.43;;;;;;;9.33;54.14;101196.53;20902425;28;20103;-69
2021/03/23 16:35:53;;;;;;;16.00;7.82;;;;;;;9.31;54.82;101199.19;20905037;28;20037;-69
2021/03/23 16:45:54;;;;;;;14.80;7.07;;;;;;;9.15;57.10;101203.25;20879607;28;20053;-69
2021/03/23 16:55:56;;;;;;;15.07;8.63;;;;;;;9.16;57.03;101204.09;20896310;28;20077;-70
2021/03/23 17:05:57;;;;;;;17.58;8.00;;;;;;;9.22;55.64;101209.09;20861971;28;20516;-70
2021/03/23 17:15:58;;;;;;;14.68;7.95;;;;;;;8.95;57.19;101208.31;20895044;28;20092;-69
2021/03/23 17:26:00;;;;;;;16.70;8.48;;;;;;;8.73;58.75;101205.59;20896289;28;20095;-70
2021/03/23 17:36:04;;;;;;;15.98;8.32;;;;;;;8.14;61.00;101204.88;20874893;28;20098;-69
2021/03/23 17:46:06;;;;;;;17.77;9.82;;;;;;;7.84;60.63;101213.63;20908135;28;20041;-70
2021/03/23 17:56:09;;;;;;;18.40;10.23;;;;;;;7.48;63.93;101224.22;20895644;28;20033;-70
2021/03/23 18:06:10;;;;;;;22.15;9.93;;;;;;;7.09;68.32;101220.13;20890496;28;20060;-70
2021/03/23 18:16:11;;;;;;;19.65;10.05;;;;;;;6.71;69.57;101240.19;20901996;28;20052;-69
2021/03/23 18:26:12;;;;;;;18.92;10.00;;;;;;;6.35;71.78;101241.06;20910980;28;20041;-69
2021/03/23 18:36:15;;;;;;;21.30;11.10;;;;;;;6.04;72.78;101240.06;20910557;28;20707;-69
2021/03/23 18:46:17;;;;;;;19.90;11.13;;;;;;;5.78;75.55;101233.66;20896686;28;20056;-69
2021/03/23 18:56:18;;;;;;;26.33;13.95;;;;;;;5.47;77.65;101238.63;20906442;28;20091;-69
2021/03/23 19:06:19;;;;;;;21.73;11.65;;;;;;;5.25;76.85;101239.94;20899539;28;20103;-69
2021/03/23 19:16:20;;;;;;;19.75;9.43;;;;;;;4.96;78.88;101240.47;20911124;28;20041;-69
2021/03/23 19:26:21;;;;;;;24.90;11.95;;;;;;;4.73;79.20;101232.22;20907373;28;20041;-69
2021/03/23 19:36:22;;;;;;;19.10;9.27;;;;;;;4.42;79.74;101244.00;20886396;28;20152;-69
2021/03/23 19:46:24;;;;;;;22.00;12.68;;;;;;;4.14;79.60;101235.75;20884854;28;20045;-69
2021/03/23 19:56:25;;;;;;;29.35;14.32;;;;;;;3.85;81.89;101231.00;20901036;28;20064;-70
2021/03/23 20:06:26;;;;;;;21.80;11.65;;;;;;;3.80;81.65;101243.16;20894173;28;20041;-69
2021/03/23 20:16:27;;;;;;;19.98;10.20;;;;;;;3.60;82.60;101242.53;20911179;28;20132;-69
2021/03/23 20:26:37;;;;;;;23.20;9.13;;;;;;;3.47;84.17;101238.38;20937402;28;20051;-69
2021/03/23 20:36:39;;;;;;;27.52;14.00;;;;;;;3.34;84.64;101242.84;20901352;28;20044;-70
2021/03/23 20:46:41;;;;;;;22.10;11.35;;;;;;;3.13;84.39;101246.50;20899170;28;20041;-69
2021/03/23 20:56:58;;;;;;;19.83;9.90;;;;;;;2.97;85.31;101244.94;20907921;28;20412;-70
2021/03/23 21:07:00;;;;;;;21.50;11.00;;;;;;;2.77;86.15;101250.31;20889766;28;20110;-69
2021/03/23 21:17:01;;;;;;;20.45;9.55;;;;;;;2.55;85.96;101247.03;20906293;28;20053;-69
2021/03/23 21:27:08;;;;;;;23.52;11.38;;;;;;;2.33;87.73;101244.63;20893745;28;20094;-69
2021/03/23 21:37:09;;;;;;;25.60;12.57;;;;;;;2.22;88.59;101236.97;20887886;28;20045;-69
2021/03/23 21:47:11;;;;;;;33.95;16.77;;;;;;;2.14;89.51;101238.72;20883588;28;20041;-70
2021/03/23 21:57:13;;;;;;;26.15;13.45;;;;;;;2.03;89.61;101237.94;20909541;28;20049;-71
2021/03/23 22:07:13;;;;;;;26.23;13.45;;;;;;;1.88;89.32;101238.88;20886704;28;20041;-71
2021/03/23 22:17:14;;;;;;;27.30;12.50;;;;;;;1.72;91.29;101239.84;20904678;28;20128;-71
2021/03/23 22:27:16;;;;;;;28.33;13.38;;;;;;;1.61;90.72;101226.97;20895807;28;20532;-71
2021/03/23 22:37:17;;;;;;;28.00;14.20;;;;;;;1.45;91.84;101230.47;20895695;28;20480;-70
2021/03/23 22:47:17;;;;;;;27.25;13.25;;;;;;;1.24;93.00;101235.72;20914598;28;20049;-71
2021/03/23 22:57:19;;;;;;;30.38;14.05;;;;;;;1.18;94.13;101230.56;20960061;28;20091;-71
2021/03/23 23:07:20;;;;;;;31.95;14.15;;;;;;;1.03;94.84;101225.44;20933078;28;20037;-70
2021/03/23 23:17:21;;;;;;;31.83;13.98;;;;;;;0.95;94.54;101237.50;20914375;28;20103;-71
2021/03/23 23:27:22;;;;;;;30.33;13.30;;;;;;;0.87;94.22;101240.06;20974884;28;20052;-71
2021/03/23 23:37:23;;;;;;;30.23;14.25;;;;;;;0.77;95.10;101233.22;20993005;28;20075;-72
2021/03/23 23:47:24;;;;;;;29.05;13.27;;;;;;;0.69;94.82;101233.22;20916925;28;20049;-72
2021/03/23 23:57:25;;;;;;;28.25;13.77;;;;;;;0.61;94.37;101242.66;20895460;28;20392;-71
